Time;durP1;ratioP1;P1;durP2;ratioP2;P2;SDS_P1;SDS_P2;PMS_P1;PMS_P2;Temp;Humidity;BMP_temperature;BMP_pressure;BME280_temperature;BME280_humidity;BME280_pressure;Samples;Min_cycle;Max_cycle;Signal;HPM_P1;HPM_P2
2023/03/17 00:03:55;;;;;;;7.15;4.15;;;;;;;5.62;56.46;99930.16;10421823;28;20438;-76
2023/03/17 00:08:58;;;;;;;5.82;4.05;;;;;;;5.66;56.37;99924.53;10435833;28;20040;-76
2023/03/17 00:14:02;;;;;;;6.35;4.50;;;;;;;5.72;55.83;99917.91;10428158;28;20113;-76
2023/03/17 00:19:06;;;;;;;6.18;4.20;;;;;;;5.70;55.90;99928.72;10431303;28;20467;-76
2023/03/17 00:24:11;;;;;;;9.18;4.22;;;;;;;5.76;55.67;99921.22;10433792;28;20108;-76
2023/03/17 00:29:16;;;;;;;7.43;3.70;;;;;;;5.65;55.78;99909.50;10442199;28;20081;-75
2023/03/17 00:34:21;;;;;;;4.82;3.90;;;;;;;5.80;55.62;99925.41;10442343;28;20045;-76
2023/03/17 00:39:24;;;;;;;9.18;4.15;;;;;;;5.95;54.99;99913.66;10429411;28;20079;-76
2023/03/17 00:44:29;;;;;;;7.05;4.38;;;;;;;6.00;54.67;99924.88;10431974;28;20073;-74
2023/03/17 00:49:33;;;;;;;9.88;3.70;;;;;;;5.97;54.73;99908.25;10427230;28;20046;-76
2023/03/17 00:54:36;;;;;;;5.07;4.15;;;;;;;5.86;54.93;99896.50;10436916;28;20065;-76
2023/03/17 00:59:42;;;;;;;8.30;3.70;;;;;;;5.70;55.51;99886.06;10433679;28;20060;-75
2023/03/17 01:04:47;;;;;;;4.95;3.63;;;;;;;5.81;55.10;99889.78;10442899;28;20029;-76
2023/03/17 01:10:14;;;;;;;4.65;3.78;;;;;;;5.79;54.90;99883.69;10432437;28;20079;-74
2023/03/17 01:15:18;;;;;;;6.53;4.03;;;;;;;5.80;54.93;99869.44;10438413;28;20048;-76
2023/03/17 01:20:24;;;;;;;5.97;3.90;;;;;;;5.78;54.95;99869.53;10436081;28;20632;-76
2023/03/17 01:25:27;;;;;;;7.57;4.13;;;;;;;5.84;54.78;99876.22;10425378;28;20444;-76
2023/03/17 01:30:33;;;;;;;5.85;3.67;;;;;;;5.83;54.90;99879.88;10434901;28;20053;-75
2023/03/17 01:35:37;;;;;;;3.75;2.72;;;;;;;5.82;54.91;99903.00;10424065;28;20069;-74
2023/03/17 01:40:44;;;;;;;6.00;3.63;;;;;;;5.89;54.70;99917.59;10432887;28;20053;-76
2023/03/17 01:46:16;;;;;;;5.85;3.65;;;;;;;5.74;55.10;99913.34;10429267;28;20041;-76
2023/03/17 01:51:28;;;;;;;8.70;3.93;;;;;;;5.50;55.75;99903.38;10426268;28;20409;-76
2023/03/17 01:56:31;;;;;;;7.25;4.35;;;;;;;5.46;56.07;99893.06;10432502;28;20071;-75
2023/03/17 02:01:38;;;;;;;6.15;3.63;;;;;;;5.50;55.88;99883.88;10425583;28;20299;-75
2023/03/17 02:06:43;;;;;;;5.60;3.63;;;;;;;5.55;56.05;99872.94;10420489;28;20042;-75
2023/03/17 02:12:01;;;;;;;6.68;3.72;;;;;;;5.62;55.78;99864.41;10429129;28;20045;-76
2023/03/17 02:17:04;;;;;;;5.22;4.15;;;;;;;5.66;55.43;99873.91;10425245;28;20448;-76
2023/03/17 02:22:09;;;;;;;6.47;4.07;;;;;;;5.64;55.03;99874.97;10431823;28;20460;-75
2023/03/17 02:27:14;;;;;;;6.00;3.67;;;;;;;5.79;54.89;99860.59;10429763;28;20045;-76
2023/03/17 02:32:18;;;;;;;7.00;4.18;;;;;;;5.90;54.28;99868.69;10428690;28;20077;-75
2023/03/17 02:37:22;;;;;;;7.40;3.95;;;;;;;5.76;54.48;99889.25;10428570;28;20065;-75
2023/03/17 02:42:27;;;;;;;6.88;3.97;;;;;;;5.64;55.00;99888.28;10429302;28;20060;-76
2023/03/17 02:47:33;;;;;;;7.97;4.05;;;;;;;5.57;55.22;99898.50;10425880;28;20245;-75
2023/03/17 02:52:37;;;;;;;8.18;3.83;;;;;;;5.50;55.43;99906.06;10426593;28;20037;-76
2023/03/17 02:57:40;;;;;;;6.57;4.30;;;;;;;5.38;55.90;99890.06;10420374;28;20088;-76
2023/03/17 03:02:43;;;;;;;8.05;4.20;;;;;;;5.08;56.48;99876.97;10426529;28;20045;-75
2023/03/17 03:07:47;;;;;;;9.98;5.22;;;;;;;5.00;57.21;99865.03;10437894;28;20045;-74
2023/03/17 03:12:50;;;;;;;6.65;4.25;;;;;;;5.00;57.59;99834.91;10429321;28;20037;-73
2023/03/17 03:17:53;;;;;;;7.95;5.00;;;;;;;4.88;57.93;99833.84;10422279;28;20929;-73
2023/03/17 03:22:58;;;;;;;8.82;4.63;;;;;;;4.81;57.87;99824.56;10424595;28;20041;-73
2023/03/17 03:28:00;;;;;;;9.82;4.60;;;;;;;4.98;57.23;99818.13;10435308;28;20049;-73
2023/03/17 03:33:04;;;;;;;7.30;4.90;;;;;;;5.03;56.99;99805.41;10431683;28;20048;-74
2023/03/17 03:38:08;;;;;;;8.77;5.10;;;;;;;4.90;57.68;99818.63;10427815;28;20069;-73
2023/03/17 03:43:12;;;;;;;6.13;4.53;;;;;;;5.00;57.28;99810.94;10421570;28;20080;-74
2023/03/17 03:48:25;;;;;;;7.20;4.53;;;;;;;4.83;57.37;99815.53;10439569;28;20126;-73
2023/03/17 03:53:30;;;;;;;8.20;5.10;;;;;;;4.93;57.33;99814.91;10425547;28;20520;-73
2023/03/17 03:58:32;;;;;;;5.32;4.60;;;;;;;4.98;57.20;99815.47;10437302;28;20116;-74
2023/03/17 04:03:36;;;;;;;7.57;4.90;;;;;;;4.77;57.30;99801.78;10435550;28;20098;-73
2023/03/17 04:08:40;;;;;;;9.30;5.03;;;;;;;4.75;57.72;99803.69;10433385;28;20038;-74
2023/03/17 04:13:43;;;;;;;11.18;5.30;;;;;;;4.59;58.30;99786.06;10434635;28;20125;-74
2023/03/17 04:18:45;;;;;;;9.85;5.32;;;;;;;4.71;58.14;99802.19;10420635;28;20136;-73
2023/03/17 04:23:51;;;;;;;9.02;5.18;;;;;;;4.62;57.93;99807.16;10432377;28;20037;-75
2023/03/17 04:28:54;;;;;;;6.57;4.50;;;;;;;4.77;57.64;99815.06;10442628;28;20128;-73
2023/03/17 04:33:57;;;;;;;8.93;5.20;;;;;;;4.75;57.90;99809.03;10425970;28;20515;-75
2023/03/17 04:39:01;;;;;;;7.10;5.28;;;;;;;4.74;57.95;99810.81;10427275;28;20099;-75
2023/03/17 04:44:04;;;;;;;8.48;5.18;;;;;;;4.68;57.96;99808.56;10427243;28;20045;-74
2023/03/17 04:49:08;;;;;;;8.20;4.95;;;;;;;4.53;58.16;99805.09;10442267;23;20068;-75
2023/03/17 04:54:12;;;;;;;7.50;4.88;;;;;;;4.62;57.82;99804.50;10438267;28;20048;-75
2023/03/17 04:59:16;;;;;;;9.00;4.82;;;;;;;4.69;57.63;99789.00;10439567;28;20049;-75
2023/03/17 05:04:18;;;;;;;8.80;5.30;;;;;;;4.68;57.44;99810.38;10426911;28;20084;-75
2023/03/17 05:09:35;;;;;;;7.70;5.32;;;;;;;4.75;57.53;99809.03;10433032;28;20103;-75
2023/03/17 05:14:38;;;;;;;5.88;4.43;;;;;;;4.78;57.30;99804.34;10424327;28;20128;-75
2023/03/17 05:19:41;;;;;;;6.60;4.50;;;;;;;4.78;57.35;99793.69;10430877;28;20377;-75
2023/03/17 05:24:46;;;;;;;8.98;4.90;;;;;;;4.80;57.40;99798.91;10437549;28;20111;-74
2023/03/17 05:29:49;;;;;;;8.95;5.68;;;;;;;4.59;57.71;99799.38;10434084;28;20098;-75
2023/03/17 05:34:52;;;;;;;8.43;5.25;;;;;;;4.74;57.45;99794.84;10428289;28;20073;-75
2023/03/17 05:39:56;;;;;;;6.25;4.35;;;;;;;4.67;57.63;99793.56;10432180;28;20488;-76
2023/03/17 05:44:59;;;;;;;8.88;5.38;;;;;;;4.64;57.53;99792.91;10434152;28;20111;-75
2023/03/17 05:50:03;;;;;;;8.95;5.47;;;;;;;4.56;57.92;99791.59;10431436;28;20040;-75
2023/03/17 05:55:08;;;;;;;8.95;5.43;;;;;;;4.46;58.48;99779.84;10434293;28;20045;-73
2023/03/17 06:00:15;;;;;;;8.95;5.50;;;;;;;4.59;58.23;99782.56;10429715;28;20069;-75
2023/03/17 06:05:18;;;;;;;10.90;5.78;;;;;;;4.65;58.09;99776.00;10430779;28;20086;-75
2023/03/17 06:10:22;;;;;;;7.82;5.40;;;;;;;4.65;58.13;99784.81;10429479;28;20045;-74
2023/03/17 06:15:25;;;;;;;11.45;5.25;;;;;;;4.78;57.79;99782.22;10424073;28;20045;-74
2023/03/17 06:20:28;;;;;;;8.43;5.18;;;;;;;4.82;57.76;99792.53;10431101;28;20056;-74
2023/03/17 06:25:33;;;;;;;8.82;5.85;;;;;;;4.72;57.73;99770.16;10421512;28;20120;-74
2023/03/17 06:30:36;;;;;;;9.43;5.55;;;;;;;5.10;57.26;99769.44;10427575;28;20041;-74
2023/03/17 06:35:42;;;;;;;8.93;5.90;;;;;;;5.36;56.68;99764.13;10428776;28;20534;-75
2023/03/17 06:40:46;;;;;;;8.32;5.60;;;;;;;5.46;56.16;99760.72;10438091;28;20533;-74
2023/03/17 06:45:50;;;;;;;10.30;5.85;;;;;;;5.81;55.24;99760.03;10427917;28;20061;-75
2023/03/17 06:50:53;;;;;;;11.77;5.50;;;;;;;5.98;54.62;99753.53;10434946;28;20068;-75
2023/03/17 06:55:57;;;;;;;6.25;4.78;;;;;;;6.17;54.05;99764.56;10423758;28;20039;-75
2023/03/17 07:01:00;;;;;;;9.20;5.20;;;;;;;6.46;52.97;99782.91;10432101;28;20512;-73
2023/03/17 07:06:03;;;;;;;7.18;4.97;;;;;;;6.36;53.11;99776.53;10427818;28;20116;-75
2023/03/17 07:11:08;;;;;;;8.30;5.60;;;;;;;6.32;53.13;99775.91;10423714;28;20448;-74
2023/03/17 07:16:15;;;;;;;10.93;5.40;;;;;;;6.51;52.79;99774.56;10430708;28;20037;-74
2023/03/17 07:21:18;;;;;;;7.65;5.15;;;;;;;6.92;51.98;99770.66;10422565;28;20124;-75
2023/03/17 07:26:23;;;;;;;12.30;5.50;;;;;;;7.48;51.51;99765.44;10397019;28;20076;-73
2023/03/17 07:31:27;;;;;;;8.15;4.53;;;;;;;7.38;51.87;99764.47;10388531;28;20045;-75
2023/03/17 07:36:30;;;;;;;6.95;4.40;;;;;;;7.75;51.30;99765.09;10393265;28;20708;-75
2023/03/17 07:41:35;;;;;;;6.15;4.60;;;;;;;8.39;50.22;99769.75;10386683;28;20048;-74
2023/03/17 07:46:38;;;;;;;9.25;5.50;;;;;;;8.40;49.22;99763.47;10377025;28;20114;-73
2023/03/17 07:51:42;;;;;;;9.63;5.20;;;;;;;8.46;49.26;99760.31;10389093;28;20053;-75
2023/03/17 07:56:46;;;;;;;10.60;5.63;;;;;;;8.55;48.47;99756.84;10391787;28;20127;-74
2023/03/17 08:01:49;;;;;;;9.00;6.28;;;;;;;8.74;48.30;99756.19;10404362;28;20057;-75
2023/03/17 08:06:53;;;;;;;8.05;5.25;;;;;;;9.18;47.04;99746.22;10402191;28;20041;-75
2023/03/17 08:11:57;;;;;;;7.57;5.35;;;;;;;8.92;46.85;99752.97;10408220;28;20530;-75
2023/03/17 08:17:01;;;;;;;12.70;7.82;;;;;;;8.88;47.05;99755.03;10401129;28;20049;-75
2023/03/17 08:22:04;;;;;;;9.40;6.05;;;;;;;9.28;46.74;99757.03;10399975;28;20088;-76
2023/03/17 08:27:09;;;;;;;7.40;4.95;;;;;;;9.94;45.98;99759.34;10410440;28;20079;-75
2023/03/17 08:32:12;;;;;;;13.10;6.78;;;;;;;10.20;45.44;99745.44;10408858;28;20060;-75
2023/03/17 08:37:15;;;;;;;5.57;5.00;;;;;;;10.51;45.29;99759.66;10410072;28;20112;-75
2023/03/17 08:42:20;;;;;;;6.13;4.13;;;;;;;10.56;45.02;99741.28;10394705;28;21135;-74
2023/03/17 08:47:23;;;;;;;16.00;5.00;;;;;;;10.72;45.20;99738.03;10397347;28;20049;-76
2023/03/17 08:52:27;;;;;;;6.80;4.13;;;;;;;11.60;43.96;99728.88;10394794;28;20079;-76
2023/03/17 08:57:32;;;;;;;7.18;4.30;;;;;;;11.78;43.69;99725.41;10401998;28;20547;-74
2023/03/17 09:02:35;;;;;;;7.50;4.50;;;;;;;11.58;42.94;99728.19;10408378;28;20057;-73
2023/03/17 09:07:38;;;;;;;7.90;4.28;;;;;;;11.99;43.46;99725.19;10411153;28;20419;-76
2023/03/17 09:12:42;;;;;;;6.40;4.35;;;;;;;12.01;43.27;99721.31;10403485;28;21259;-73
2023/03/17 09:17:45;;;;;;;5.15;3.83;;;;;;;12.08;42.91;99719.72;10410261;28;20049;-73
2023/03/17 09:22:48;;;;;;;8.02;4.43;;;;;;;12.00;42.85;99729.56;10399887;28;20053;-74
2023/03/17 09:27:52;;;;;;;6.22;3.90;;;;;;;12.36;42.66;99736.72;10395867;28;20080;-73
2023/03/17 09:32:55;;;;;;;6.30;3.97;;;;;;;12.63;42.35;99747.63;10402415;28;20608;-72
2023/03/17 09:37:57;;;;;;;5.72;3.70;;;;;;;12.62;42.96;99748.66;10410749;28;20050;-73
2023/03/17 09:43:12;;;;;;;7.25;4.13;;;;;;;12.84;42.36;99750.88;10409853;28;20166;-74
2023/03/17 09:48:31;;;;;;;3.95;3.47;;;;;;;13.28;41.50;99746.34;10401255;28;20096;-74
2023/03/17 09:53:36;;;;;;;6.85;3.70;;;;;;;13.65;41.33;99749.81;10404830;28;20120;-71
2023/03/17 09:58:45;;;;;;;4.45;3.63;;;;;;;13.77;40.68;99740.44;10403812;28;20049;-75
2023/03/17 10:03:50;;;;;;;6.00;3.88;;;;;;;14.57;41.04;99742.78;10388285;28;20061;-74
2023/03/17 10:09:00;;;;;;;4.80;3.60;;;;;;;14.84;39.70;99728.13;10408611;28;20637;-75
2023/03/17 10:14:17;;;;;;;7.90;3.25;;;;;;;14.88;40.01;99718.66;10408295;28;20533;-72
2023/03/17 10:19:26;;;;;;;4.00;3.08;;;;;;;15.10;39.70;99705.47;10418636;28;20699;-74
2023/03/17 10:24:32;;;;;;;4.43;3.40;;;;;;;15.31;39.27;99702.25;10407021;28;20099;-74
2023/03/17 10:29:37;;;;;;;5.22;3.17;;;;;;;15.57;39.09;99688.50;10398600;28;21151;-77
2023/03/17 10:34:41;;;;;;;6.82;4.38;;;;;;;16.57;38.39;99697.69;10403460;28;20576;-74
2023/03/17 10:39:46;;;;;;;5.53;2.63;;;;;;;16.39;37.28;99704.44;10401151;28;20049;-74
2023/03/17 10:44:55;;;;;;;6.72;5.00;;;;;;;16.63;37.74;99692.59;10399022;28;20120;-76
2023/03/17 10:50:01;;;;;;;4.25;2.47;;;;;;;16.92;35.59;99698.13;10388348;28;20140;-75
2023/03/17 10:55:06;;;;;;;3.28;1.95;;;;;;;17.11;34.97;99685.88;10396862;28;20111;-75
2023/03/17 11:00:18;;;;;;;3.13;1.98;;;;;;;16.50;36.11;99690.47;10401822;28;20065;-73
2023/03/17 11:05:23;;;;;;;2.42;2.22;;;;;;;16.37;35.85;99680.19;10394511;28;20263;-74
2023/03/17 11:10:28;;;;;;;2.45;2.25;;;;;;;16.82;35.21;99678.53;10390044;28;20415;-75
2023/03/17 11:15:36;;;;;;;4.05;2.17;;;;;;;18.53;34.46;99677.59;10385419;28;20512;-72
2023/03/17 11:20:45;;;;;;;3.00;2.03;;;;;;;19.33;32.16;99681.06;10389216;28;20049;-73
2023/03/17 11:25:56;;;;;;;4.00;2.30;;;;;;;18.71;33.05;99675.28;10396605;28;20049;-74
2023/03/17 11:31:08;;;;;;;4.85;2.47;;;;;;;19.35;32.04;99674.38;10378700;28;20416;-76
2023/03/17 11:36:25;;;;;;;4.10;2.38;;;;;;;18.92;32.59;99660.84;10390311;28;20060;-76
2023/03/17 11:41:50;;;;;;;4.20;2.50;;;;;;;19.10;32.14;99654.09;10392352;28;20056;-75
2023/03/17 11:47:03;;;;;;;5.22;2.60;;;;;;;18.10;34.01;99664.81;10386786;28;20053;-76
2023/03/17 11:52:18;;;;;;;3.05;2.10;;;;;;;18.16;33.88;99663.22;10386604;28;20049;-76
2023/03/17 11:57:27;;;;;;;3.83;2.08;;;;;;;17.63;35.07;99660.59;10385114;28;20409;-75
2023/03/17 12:02:38;;;;;;;3.88;2.90;;;;;;;18.39;33.71;99651.31;10393800;28;20053;-75
2023/03/17 12:07:45;;;;;;;4.13;2.38;;;;;;;19.08;33.24;99648.81;10394171;28;20049;-76
2023/03/17 12:12:52;;;;;;;3.80;2.35;;;;;;;18.53;32.63;99648.53;10389675;28;20049;-75
2023/03/17 12:18:02;;;;;;;4.32;2.78;;;;;;;17.69;34.65;99646.28;10388020;28;20049;-75
2023/03/17 12:23:11;;;;;;;4.28;2.83;;;;;;;17.69;34.23;99649.00;10395228;28;20059;-75
2023/03/17 12:28:16;;;;;;;5.05;2.83;;;;;;;17.96;34.39;99657.47;10385231;28;20053;-75
2023/03/17 12:33:28;;;;;;;3.40;2.55;;;;;;;18.19;34.14;99651.09;10384167;28;20052;-74
2023/03/17 12:38:37;;;;;;;4.05;2.67;;;;;;;18.84;33.07;99638.38;10390148;28;20037;-74
2023/03/17 12:43:49;;;;;;;3.58;2.90;;;;;;;19.49;32.20;99628.16;10385235;28;20090;-75
2023/03/17 12:49:26;;;;;;;5.55;2.40;;;;;;;19.77;31.97;99634.41;10394383;28;20054;-74
2023/03/17 12:54:31;;;;;;;5.10;2.35;;;;;;;19.64;32.92;99637.09;10381679;28;20053;-74
2023/03/17 12:59:36;;;;;;;4.13;2.30;;;;;;;19.10;33.35;99627.72;10390409;28;21271;-74
2023/03/17 13:04:49;;;;;;;3.85;2.53;;;;;;;19.34;32.93;99614.69;10390878;28;20049;-74
2023/03/17 13:10:18;;;;;;;3.50;2.35;;;;;;;19.57;32.31;99612.53;10389839;28;20041;-75
2023/03/17 13:15:47;;;;;;;4.47;2.47;;;;;;;19.16;33.40;99610.56;10390640;28;20050;-76
2023/03/17 13:21:10;;;;;;;6.22;2.20;;;;;;;18.89;32.87;99595.94;10393044;28;20041;-75
2023/03/17 13:26:15;;;;;;;4.20;2.20;;;;;;;18.93;33.55;99585.50;10391126;28;20053;-75
2023/03/17 13:31:36;;;;;;;4.47;2.65;;;;;;;18.98;33.45;99586.59;10400373;28;20645;-74
2023/03/17 13:36:52;;;;;;;5.03;2.25;;;;;;;19.06;33.52;99585.63;10399256;28;20104;-76
2023/03/17 13:42:06;;;;;;;5.68;2.30;;;;;;;19.25;33.31;99592.19;10393207;28;20095;-76
2023/03/17 13:47:33;;;;;;;3.20;2.10;;;;;;;19.16;33.66;99577.91;10399127;28;21282;-74
2023/03/17 13:52:43;;;;;;;5.93;1.98;;;;;;;19.13;34.09;99563.88;10389141;28;20701;-75
2023/03/17 13:57:56;;;;;;;2.70;2.25;;;;;;;19.73;34.73;99561.47;10402169;28;20214;-74
2023/03/17 14:03:03;;;;;;;2.22;1.80;;;;;;;19.36;34.25;99571.72;10391624;28;20180;-73
2023/03/17 14:08:17;;;;;;;4.30;2.10;;;;;;;19.08;35.01;99567.19;10397857;28;20037;-76
2023/03/17 14:13:23;;;;;;;3.15;2.28;;;;;;;18.96;35.00;99552.47;10394011;28;20045;-75
2023/03/17 14:18:30;;;;;;;4.97;2.22;;;;;;;18.97;36.22;99545.97;10389579;28;20150;-75
2023/03/17 14:23:35;;;;;;;5.28;2.17;;;;;;;18.97;37.35;99546.81;10401767;28;20046;-74
2023/03/17 14:28:38;;;;;;;3.70;2.17;;;;;;;19.27;36.84;99541.13;10408169;28;20154;-74
2023/03/17 14:33:41;;;;;;;5.85;2.20;;;;;;;18.83;37.22;99534.16;10403267;28;20187;-75
2023/03/17 14:38:48;;;;;;;3.58;2.38;;;;;;;18.06;38.06;99543.09;10411389;28;20126;-75
2023/03/17 14:43:55;;;;;;;8.95;3.97;;;;;;;17.59;39.21;99544.44;10410177;28;20487;-75
2023/03/17 14:49:01;;;;;;;6.25;3.05;;;;;;;17.07;39.99;99550.81;10405171;28;20053;-74
2023/03/17 14:54:12;;;;;;;7.25;3.88;;;;;;;16.81;40.18;99558.38;10411633;28;20056;-74
2023/03/17 14:59:20;;;;;;;3.87;3.50;;;;;;;16.52;40.89;99561.03;10402245;28;20060;-75
2023/03/17 15:04:25;;;;;;;4.10;2.50;;;;;;;16.70;40.77;99553.41;10406972;28;20055;-75
2023/03/17 15:09:34;;;;;;;7.70;2.42;;;;;;;16.68;40.64;99543.75;10410347;28;20533;-74
2023/03/17 15:14:39;;;;;;;6.78;2.50;;;;;;;16.42;40.54;99542.28;10396732;28;20434;-74
2023/03/17 15:19:45;;;;;;;9.68;2.17;;;;;;;16.32;40.77;99541.72;10406789;28;20041;-74
2023/03/17 15:24:59;;;;;;;9.00;2.22;;;;;;;16.30;40.65;99541.88;10407284;28;20045;-75
2023/03/17 15:30:03;;;;;;;5.85;2.40;;;;;;;16.03;40.90;99545.13;10404230;28;20144;-74
2023/03/17 15:35:07;;;;;;;3.85;1.73;;;;;;;15.78;41.49;99547.16;10395113;28;20049;-75
2023/03/17 15:40:14;;;;;;;2.90;2.33;;;;;;;15.79;41.56;99540.69;10387976;28;20446;-74
2023/03/17 15:45:17;;;;;;;4.03;2.47;;;;;;;15.49;42.41;99537.81;10388476;28;20055;-75
2023/03/17 15:50:23;;;;;;;5.00;2.20;;;;;;;15.51;42.12;99548.47;10399670;28;20049;-75
2023/03/17 15:55:29;;;;;;;2.90;1.80;;;;;;;15.39;42.21;99532.63;10387098;28;20156;-75
2023/03/17 16:00:33;;;;;;;3.40;1.95;;;;;;;15.22;41.79;99537.25;10388812;28;20047;-75
2023/03/17 16:05:36;;;;;;;5.68;2.17;;;;;;;15.04;41.93;99542.03;10393726;28;20585;-75
2023/03/17 16:10:40;;;;;;;2.42;1.98;;;;;;;14.90;42.20;99524.66;10382399;28;20046;-75
2023/03/17 16:15:50;;;;;;;5.93;2.13;;;;;;;14.77;41.81;99511.69;10389828;28;20052;-75
2023/03/17 16:20:54;;;;;;;2.35;1.77;;;;;;;14.55;42.14;99531.31;10391871;28;20045;-76
2023/03/17 16:25:58;;;;;;;2.65;1.77;;;;;;;14.32;42.78;99540.09;10404696;28;20203;-75
2023/03/17 16:31:22;;;;;;;4.60;2.10;;;;;;;14.11;43.00;99542.44;10407001;28;20049;-74
2023/03/17 16:36:25;;;;;;;2.13;1.90;;;;;;;14.12;43.44;99550.41;10395451;28;20715;-74
2023/03/17 16:41:34;;;;;;;5.63;2.00;;;;;;;13.99;43.39;99558.13;10405309;28;20499;-75
2023/03/17 16:46:43;;;;;;;4.25;2.30;;;;;;;13.92;44.34;99576.00;10395273;28;20099;-75
2023/03/17 16:51:46;;;;;;;5.88;2.00;;;;;;;13.83;43.93;99563.50;10399131;28;20094;-75
2023/03/17 16:56:53;;;;;;;4.13;2.10;;;;;;;13.92;43.91;99568.72;10411653;28;20076;-75
2023/03/17 17:01:56;;;;;;;5.63;1.90;;;;;;;13.96;43.92;99571.09;10403872;28;20156;-75
2023/03/17 17:06:59;;;;;;;3.45;2.25;;;;;;;13.97;43.84;99573.66;10406140;28;20464;-75
2023/03/17 17:12:03;;;;;;;7.03;2.58;;;;;;;14.03;43.97;99591.88;10413820;28;20048;-75
2023/03/17 17:17:06;;;;;;;6.80;2.63;;;;;;;13.86;44.49;99601.81;10408298;28;20187;-75
2023/03/17 17:22:11;;;;;;;5.38;2.40;;;;;;;13.81;44.31;99614.09;10412268;28;20137;-76
2023/03/17 17:27:15;;;;;;;4.78;2.63;;;;;;;13.76;44.41;99603.78;10412286;28;20442;-76
2023/03/17 17:32:18;;;;;;;5.20;2.90;;;;;;;13.73;44.63;99601.41;10402422;28;20053;-76
2023/03/17 17:37:21;;;;;;;7.05;3.72;;;;;;;13.63;45.04;99596.19;10397754;28;20067;-75
2023/03/17 17:42:25;;;;;;;4.45;2.95;;;;;;;13.58;44.98;99601.22;10393164;28;20057;-75
2023/03/17 17:47:29;;;;;;;7.15;2.42;;;;;;;13.51;44.91;99602.03;10395944;28;20063;-75
2023/03/17 17:52:34;;;;;;;4.43;3.60;;;;;;;13.39;45.12;99618.50;10390452;28;20060;-75
2023/03/17 17:57:38;;;;;;;8.25;4.57;;;;;;;13.45;45.20;99617.84;10394118;28;20045;-75
2023/03/17 18:02:41;;;;;;;5.18;3.10;;;;;;;13.34;45.69;99587.59;10393640;28;21257;-75
2023/03/17 18:07:43;;;;;;;6.05;3.08;;;;;;;13.21;47.81;99579.94;10410958;28;20067;-75
2023/03/17 18:12:48;;;;;;;6.82;2.97;;;;;;;13.08;50.81;99603.78;10404115;28;20530;-75
2023/03/17 18:17:51;;;;;;;3.45;2.67;;;;;;;12.96;49.24;99606.75;10408431;28;20051;-76
2023/03/17 18:22:54;;;;;;;6.15;3.70;;;;;;;12.94;49.66;99605.22;10407674;28;20103;-75
2023/03/17 18:28:00;;;;;;;7.18;2.60;;;;;;;12.85;48.36;99596.22;10392257;28;20079;-75
2023/03/17 18:33:08;;;;;;;5.30;2.88;;;;;;;12.87;47.96;99578.06;10397060;28;20091;-75
2023/03/17 18:38:11;;;;;;;6.88;2.53;;;;;;;12.84;48.03;99570.31;10407515;28;20454;-75
2023/03/17 18:43:15;;;;;;;7.35;3.47;;;;;;;12.81;47.62;99576.00;10403694;28;20045;-75
2023/03/17 18:48:18;;;;;;;9.48;4.05;;;;;;;12.82;47.37;99594.69;10412365;28;20052;-75
2023/03/17 18:53:21;;;;;;;6.28;3.60;;;;;;;12.80;47.48;99606.63;10400513;28;20176;-75
2023/03/17 18:58:26;;;;;;;8.48;4.00;;;;;;;12.82;47.65;99599.25;10395026;28;20055;-74
2023/03/17 19:03:30;;;;;;;8.80;3.58;;;;;;;12.68;47.82;99578.28;10394346;28;20044;-75
2023/03/17 19:08:33;;;;;;;6.45;3.35;;;;;;;12.76;48.12;99575.63;10396577;28;20099;-76
2023/03/17 19:13:38;;;;;;;5.18;3.50;;;;;;;12.70;49.19;99560.06;10406289;28;20083;-74
2023/03/17 19:18:41;;;;;;;6.07;3.28;;;;;;;12.73;47.89;99573.25;10408712;28;20072;-76
2023/03/17 19:23:44;;;;;;;4.75;3.83;;;;;;;12.65;47.30;99570.50;10397883;28;20094;-76
2023/03/17 19:28:48;;;;;;;6.75;3.20;;;;;;;12.63;47.32;99565.25;10409894;28;20396;-76
2023/03/17 19:33:51;;;;;;;7.22;3.45;;;;;;;12.52;47.68;99614.84;10405479;28;20393;-76
2023/03/17 19:38:55;;;;;;;7.30;2.88;;;;;;;12.56;47.15;99601.91;10390678;28;20071;-75
2023/03/17 19:43:59;;;;;;;4.35;2.58;;;;;;;12.64;47.20;99610.06;10404360;28;20071;-75
2023/03/17 19:49:03;;;;;;;5.10;2.78;;;;;;;12.69;46.77;99588.88;10397813;28;20059;-76
2023/03/17 19:54:06;;;;;;;3.30;2.03;;;;;;;12.75;47.27;99596.34;10397824;28;20044;-76
2023/03/17 19:59:11;;;;;;;4.07;2.60;;;;;;;12.71;47.35;99597.66;10393463;28;20635;-76
2023/03/17 20:04:18;;;;;;;4.20;2.78;;;;;;;12.58;47.37;99584.59;10385483;28;20139;-75
2023/03/17 20:09:21;;;;;;;4.80;2.72;;;;;;;12.64;47.27;99588.50;10383991;28;20898;-75
2023/03/17 20:14:25;;;;;;;4.13;2.60;;;;;;;12.52;47.86;99619.41;10390665;28;20041;-75
2023/03/17 20:19:29;;;;;;;4.65;2.58;;;;;;;12.60;47.33;99612.22;10388054;28;20045;-75
2023/03/17 20:24:33;;;;;;;6.65;2.63;;;;;;;12.65;47.29;99598.28;10390090;28;20087;-75
2023/03/17 20:29:37;;;;;;;7.25;2.47;;;;;;;12.70;46.92;99600.50;10392839;28;20045;-75
2023/03/17 20:34:41;;;;;;;5.05;2.67;;;;;;;12.61;50.18;99607.66;10393440;28;20049;-76
2023/03/17 20:39:44;;;;;;;7.80;2.90;;;;;;;12.34;53.11;99611.31;10417233;28;20111;-75
2023/03/17 20:44:51;;;;;;;5.88;2.65;;;;;;;12.21;54.06;99613.53;10404269;28;20045;-75
2023/03/17 20:49:57;;;;;;;4.80;2.63;;;;;;;12.11;53.75;99600.13;10409756;28;20508;-77
2023/03/17 20:55:01;;;;;;;8.27;2.58;;;;;;;12.20;51.00;99591.13;10409709;28;20044;-74
2023/03/17 21:00:07;;;;;;;3.72;2.90;;;;;;;12.27;49.85;99591.38;10408066;28;20064;-75
2023/03/17 21:05:18;;;;;;;4.68;3.05;;;;;;;12.31;50.52;99593.66;10405382;28;20519;-76
2023/03/17 21:10:21;;;;;;;4.05;2.58;;;;;;;12.33;49.04;99602.41;10411893;28;20130;-75
2023/03/17 21:15:25;;;;;;;5.10;3.00;;;;;;;12.38;48.57;99601.94;10403669;28;20702;-76
2023/03/17 21:20:28;;;;;;;4.47;2.60;;;;;;;12.38;48.06;99596.56;10416188;28;20053;-76
2023/03/17 21:25:32;;;;;;;6.63;3.38;;;;;;;12.22;47.55;99613.38;10412978;28;21264;-76
2023/03/17 21:30:36;;;;;;;7.10;2.35;;;;;;;12.49;46.42;99617.00;10403877;28;20183;-75
2023/03/17 21:35:39;;;;;;;5.00;2.55;;;;;;;12.64;46.90;99609.22;10403531;28;20290;-75
2023/03/17 21:40:42;;;;;;;4.15;2.40;;;;;;;12.50;46.55;99614.16;10392934;28;20052;-75
2023/03/17 21:45:47;;;;;;;4.35;1.85;;;;;;;12.68;45.70;99605.22;10411037;28;20052;-77
2023/03/17 21:50:50;;;;;;;3.80;2.20;;;;;;;12.85;45.40;99603.47;10407416;28;20049;-76
2023/03/17 21:55:52;;;;;;;4.10;2.00;;;;;;;12.56;45.47;99613.56;10416271;28;20175;-76
2023/03/17 22:00:59;;;;;;;3.95;2.33;;;;;;;12.71;46.93;99619.22;10412108;28;20045;-76
2023/03/17 22:06:04;;;;;;;6.10;2.40;;;;;;;12.51;48.18;99617.72;10409657;28;20045;-74
2023/03/17 22:11:08;;;;;;;4.60;2.22;;;;;;;12.05;49.02;99612.38;10401618;28;20064;-76
2023/03/17 22:16:13;;;;;;;3.00;1.80;;;;;;;12.04;48.49;99616.06;10410802;28;20586;-75
2023/03/17 22:21:16;;;;;;;4.40;2.33;;;;;;;12.24;49.37;99615.94;10408948;28;20045;-75
2023/03/17 22:26:21;;;;;;;11.55;2.40;;;;;;;12.17;48.55;99608.44;10396921;28;20512;-75
2023/03/17 22:31:27;;;;;;;4.72;2.72;;;;;;;12.19;48.54;99615.53;10402909;28;20118;-76
2023/03/17 22:36:30;;;;;;;5.43;2.45;;;;;;;12.19;49.00;99624.44;10423036;28;20042;-74
2023/03/17 22:41:33;;;;;;;4.22;1.90;;;;;;;12.25;48.76;99650.75;10440751;28;20043;-76
2023/03/17 22:46:39;;;;;;;5.38;2.20;;;;;;;12.29;48.69;99627.94;10445476;28;20033;-75
2023/03/17 22:51:42;;;;;;;3.53;1.80;;;;;;;12.03;48.69;99635.88;10443978;28;20037;-74
2023/03/17 22:56:45;;;;;;;8.75;2.85;;;;;;;12.27;48.21;99632.59;10448497;28;20475;-75
2023/03/17 23:01:49;;;;;;;9.02;2.20;;;;;;;12.21;48.30;99627.84;10441017;28;20033;-76
2023/03/17 23:06:52;;;;;;;5.53;1.92;;;;;;;12.04;49.03;99632.22;10428261;28;20037;-75
2023/03/17 23:11:55;;;;;;;2.88;2.38;;;;;;;12.17;48.35;99638.06;10435191;28;20516;-75
2023/03/17 23:16:59;;;;;;;5.38;2.13;;;;;;;12.23;48.48;99646.53;10425666;28;20072;-75
2023/03/17 23:22:02;;;;;;;3.58;1.95;;;;;;;12.02;48.71;99654.91;10431911;28;20040;-75
2023/03/17 23:27:05;;;;;;;5.65;2.30;;;;;;;12.13;48.88;99643.91;10430052;28;20048;-75
2023/03/17 23:32:11;;;;;;;4.57;2.75;;;;;;;12.06;51.48;99649.03;10430615;28;20042;-75
2023/03/17 23:37:14;;;;;;;3.75;2.60;;;;;;;11.72;53.38;99651.53;10428817;28;20053;-74
2023/03/17 23:42:17;;;;;;;7.47;2.47;;;;;;;11.76;54.43;99663.66;10437194;28;20116;-74
2023/03/17 23:47:21;;;;;;;8.15;2.75;;;;;;;11.68;55.92;99663.56;10422723;28;20530;-75